CheckWX is a tool to help pilots better visualize weather data.  It is not intended as a substitute for an official pre-flight weather briefing.

19:20:31 UTC

KGJT TAF
Grand Junction Regional Airport
Grand Junction, Colorado, USA
KGJT 121726Z 1218/1318 VRB05KT P6SM SKC FM122100 30005KT P6SM SKC FM130200 VRB04KT P6SM FEW200 FM131200 12005KT P6SM SKC

Nov-12@
18:00 UTC

Nov-12 @ 18:00 UTC

Nov-12@
21:00 UTC

Nov-12 @ 21:00 UTC

KGJT 121726Z 1218/1318 VRB05KT P6SM SKC
Wind
  • Variable at 5 KTS
Cloud Levels
  • Clear skies

Nov-12@
21:00 UTC

Nov-12 @ 21:00 UTC

Nov-13@
02:00 UTC

Nov-13 @ 02:00 UTC

FM122100 30005KT P6SM SKC

From

From Standard forecast or significant change

Wind
  • 300° at 5 KTS
Cloud Levels
  • Clear skies

Nov-13@
02:00 UTC

Nov-13 @ 02:00 UTC

Nov-13@
12:00 UTC

Nov-13 @ 12:00 UTC

FM130200 VRB04KT P6SM FEW200

From

From Standard forecast or significant change

Wind
  • Variable at 4 KTS
Cloud Levels
  • Few at 20,000' AGL

Nov-13@
12:00 UTC

Nov-13 @ 12:00 UTC

Nov-13@
18:00 UTC

Nov-13 @ 18:00 UTC

FM131200 12005KT P6SM SKC

From

From Standard forecast or significant change

Wind
  • 120° at 5 KTS
Cloud Levels
  • Clear skies